This is the latest recevied weather packets stored in our database for station/object IU2RPR-3. If no packets are shown the sender has not sent any weather packets the latest 10 day(s).
| Time | Temp. | Humidity | Pressure | Rain* | Wind** | Luminosity | Snow |
|---|---|---|---|---|---|---|---|
| 1788002662 | 27.78° C | 63% | 1012.9 hPa | - | - | - | - |
| 1788000259 | 26.67° C | 67% | 1013 hPa | - | - | - | - |
| 1787999072 | 26.67° C | 67% | 1013.1 hPa | - | - | - | - |
| 1787996641 | 25.56° C | 68% | 1013.1 hPa | - | - | - | - |
| 1787995439 | 25.56° C | 67% | 1013.3 hPa | - | - | - | - |
| 1787994237 | 25° C | 70% | 1013.3 hPa | - | - | - | - |
| 1787993036 | 25° C | 70% | 1013.3 hPa | - | - | - | - |
| 1787991834 | 23.89° C | 75% | 1013.1 hPa | - | - | - | - |
| 1787990633 | 23.33° C | 77% | 1013.1 hPa | - | - | - | - |
| 1787989430 | 22.78° C | 79% | 1013.2 hPa | - | - | - | - |
| 1787988228 | 22.22° C | 81% | 1013.2 hPa | - | - | - | - |
| 1787987026 | 22.22° C | 83% | 1013.2 hPa | - | - | - | - |
| 1787985826 | 21.67° C | 85% | 1013.3 hPa | - | - | - | - |
| 1787984624 | 21.11° C | 86% | 1013.3 hPa | - | - | - | - |
| 1787983421 | 20.56° C | 87% | 1013.3 hPa | - | - | - | - |
| 1787982218 | 20.56° C | 86% | 1013 hPa | - | - | - | - |
| 1787981017 | 20° C | 86% | 1012.9 hPa | - | - | - | - |
| 1787979814 | 20° C | 87% | 1012.7 hPa | - | - | - | - |
| 1787979344 | 20° C | 88% | 1012.6 hPa | - | - | - | - |
| 1787978143 | 20° C | 90% | 1012.4 hPa | - | - | - | - |
| 1787976942 | 20° C | 92% | 1012.2 hPa | - | - | - | - |
| 1787975738 | 19.44° C | 92% | 1012.1 hPa | - | - | - | - |
| 1787974536 | 19.44° C | 92% | 1012 hPa | - | - | - | - |
| 1787973334 | 20° C | 90% | 1011.8 hPa | - | - | - | - |
| 1787972133 | 20° C | 88% | 1011.5 hPa | - | - | - | - |
* Rain since midnight (hover to see other rain measurements)
** Current wind speed in m/s (hover to see current wind gust speed)